Mount Dora, FL

7:44 PM EDT on May 22, 2015 (GMT -0400)
Loch Leven | | Change Station
CLOSE
Current Station
Personal Weather Station
Location: Mount Dora, FL
Elevation: 174 ft
Nearby Weather Stations

Elev 174 ft 28.84 °N, 81.63 °W | Updated 3 minutes ago

Clear
Clear
84.2 °F
Feels Like 90 °F
N
7.3
Wind Variable Wind from SSW

Today
High -- | Low -- °F
--% Chance of Precip.
Yesterday
High -- | Low -- °F
Precip. -- in
6:31 AM 8:14 PM
Waxing Crescent, 25% visible
Pressure 30.07 in
Visibility 10.0 miles
Clouds Few 6000 ft
Heat Index 90 °F
Dew Point 72 °F
Humidity 66%
Rainfall 0.00 in
Snow Depth Not available.
UV 1 out of 12
Pollen 5.30 out of 12
Air Quality Not available.
Flu Activity Sporadic
METAR KLEE 222253Z AUTO 05011KT 10SM FEW060 32/18 A3007 RMK AO2 SLP182 T03220178

More Conditions Fewer Conditions

Pressure 30.07 in
Visibility 10.0 miles
Clouds Few 6000 ft
Heat Index 90 °F
Dew Point 72 °F
Humidity 66%
Rainfall 0.00 in
Snow Depth Not available.
UV 1 out of 12
Pollen 5.30 out of 12
Air Quality Not available.
Flu Activity Sporadic
METAR KLEE 222253Z AUTO 05011KT 10SM FEW060 32/18 A3007 RMK AO2 SLP182 T03220178

More Conditions Fewer Conditions

Nowcast | as of 7:34 PM EDT on May 22, 2015

Boundary collisions will continue to generate showers and storms into the evening...mainly across Lake County and farther south over west central Florida. Storm motion will be slow and variable which should keep much of the precipitation west of Osceola and Okeechobee counties...but a more eastward movement may occur with storms over Lake County. A strong storm or two will still be possible in this region...producing gusty winds...heavy rainfall and frequent lightning strikes. Additional details...including graphics are available online at: http://www.Srh.NOAA.Gov/mlb/blog.Php

×

10-Day Weather Forecast

Almanac

Astronomy

May. 22, 2015 Rise Set
Actual Time
Civil Twilight
Nautical Twilight
Astronomical Twilight
Moon
Length of Visible Light
Length of Day
Tomorrow will be .
, % of the Moon is Illuminated

Today's Extremes

State Highs State Lows

Community

WunderPhotos

Upload Photos

1,823,335 photos uploaded!

WunderBlogs® & News

Nearby

Air Quality

  Air Quality AQ Index Pollutant
Not available.

Snow Depth

Station Depth Elevation

Earthquake Activity

City Distance Mag. Time & Date
Minimum magnitude displayed is 2.5.

Coastal Water Temperatures

Place Temperature

Stations

Nearby Weather Stations

Station Location Temp. Windchill Dew Point Humidity Wind Precip. Elev Updated Type